createdAt,value
2023-03-16T00:00:04.150Z,-0.26
2023-03-16T00:00:36.832Z,-0.28
2023-03-16T00:01:09.502Z,-0.26
2023-03-16T00:01:42.247Z,-0.29
2023-03-16T00:02:14.964Z,-0.28
2023-03-16T00:02:47.686Z,-0.28
2023-03-16T00:03:20.590Z,-0.29
2023-03-16T00:03:53.284Z,-0.31
2023-03-16T00:04:25.983Z,-0.29
2023-03-16T00:04:58.659Z,-0.29
2023-03-16T00:05:31.335Z,-0.29
2023-03-16T00:06:04.010Z,-0.29
2023-03-16T00:06:36.704Z,-0.29
2023-03-16T00:07:09.394Z,-0.28
2023-03-16T00:07:42.131Z,-0.29
2023-03-16T00:08:14.775Z,-0.33
2023-03-16T00:08:47.438Z,-0.33
2023-03-16T00:09:20.130Z,-0.29
2023-03-16T00:09:52.789Z,-0.31
2023-03-16T00:10:25.669Z,-0.33
2023-03-16T00:10:58.432Z,-0.34
2023-03-16T00:11:24.945Z,-0.34
2023-03-16T00:11:57.622Z,-0.33
2023-03-16T00:12:30.287Z,-0.34
2023-03-16T00:13:02.960Z,-0.33
2023-03-16T00:13:35.642Z,-0.33
2023-03-16T00:14:08.365Z,-0.33
2023-03-16T00:14:41.033Z,-0.33
2023-03-16T00:15:13.726Z,-0.36
2023-03-16T00:15:46.396Z,-0.33
2023-03-16T00:16:19.152Z,-0.34
2023-03-16T00:16:51.839Z,-0.34
2023-03-16T00:17:24.507Z,-0.34
2023-03-16T00:17:57.196Z,-0.36
2023-03-16T00:18:29.880Z,-0.34
2023-03-16T00:19:02.531Z,-0.36
2023-03-16T00:19:35.202Z,-0.33
2023-03-16T00:20:07.890Z,-0.36
2023-03-16T00:20:40.532Z,-0.36
2023-03-16T00:21:13.196Z,-0.37
2023-03-16T00:21:45.891Z,-0.36
2023-03-16T00:22:16.988Z,-0.37
2023-03-16T00:22:49.665Z,-0.36
2023-03-16T00:23:22.328Z,-0.39
2023-03-16T00:23:54.989Z,-0.34
2023-03-16T00:24:27.700Z,-0.37
2023-03-16T00:25:00.333Z,-0.37
2023-03-16T00:25:32.990Z,-0.39
2023-03-16T00:26:05.668Z,-0.40
2023-03-16T00:26:38.364Z,-0.39
2023-03-16T00:27:11.037Z,-0.40
2023-03-16T00:27:43.709Z,-0.40
2023-03-16T00:28:16.390Z,-0.40
2023-03-16T00:28:49.038Z,-0.40
2023-03-16T00:29:21.711Z,-0.40
2023-03-16T00:29:54.391Z,-0.40
2023-03-16T00:30:27.286Z,-0.40
2023-03-16T00:31:00.035Z,-0.40
2023-03-16T00:31:32.758Z,-0.43
2023-03-16T00:32:05.541Z,-0.42
2023-03-16T00:32:38.271Z,-0.40
2023-03-16T00:33:11.075Z,-0.39
2023-03-16T00:33:43.727Z,-0.39
2023-03-16T00:34:16.389Z,-0.40
2023-03-16T00:34:49.064Z,-0.40
2023-03-16T00:35:21.717Z,-0.36
2023-03-16T00:35:54.433Z,-0.39
2023-03-16T00:36:27.080Z,-0.36
2023-03-16T00:36:59.783Z,-0.37
2023-03-16T00:37:32.449Z,-0.37
2023-03-16T00:38:05.115Z,-0.37
2023-03-16T00:38:37.786Z,-0.36
2023-03-16T00:39:10.449Z,-0.37
2023-03-16T00:39:43.150Z,-0.37
2023-03-16T00:40:15.799Z,-0.40
2023-03-16T00:40:48.448Z,-0.40
2023-03-16T00:41:21.135Z,-0.37
2023-03-16T00:41:53.820Z,-0.40
2023-03-16T00:42:26.506Z,-0.39
2023-03-16T00:42:59.143Z,-0.39
2023-03-16T00:43:31.816Z,-0.40
2023-03-16T00:44:04.477Z,-0.37
2023-03-16T00:44:37.153Z,-0.40
2023-03-16T00:45:09.820Z,-0.37
2023-03-16T00:45:42.580Z,-0.40
2023-03-16T00:46:15.332Z,-0.39
2023-03-16T00:46:48.030Z,-0.39
2023-03-16T00:47:20.708Z,-0.39
2023-03-16T00:47:53.369Z,-0.39
2023-03-16T00:48:26.044Z,-0.37
2023-03-16T00:48:58.732Z,-0.40
2023-03-16T00:49:31.455Z,-0.39
2023-03-16T00:50:04.085Z,-0.39
2023-03-16T00:50:37.032Z,-0.40
2023-03-16T00:51:09.712Z,-0.40
2023-03-16T00:51:42.387Z,-0.42
2023-03-16T00:52:15.158Z,-0.40
2023-03-16T00:52:47.820Z,-0.39
2023-03-16T00:53:20.486Z,-0.37
2023-03-16T00:53:53.157Z,-0.37
2023-03-16T00:54:25.824Z,-0.39
2023-03-16T00:54:58.550Z,-0.39
2023-03-16T00:55:31.223Z,-0.40
2023-03-16T00:56:03.889Z,-0.39
2023-03-16T00:56:36.585Z,-0.42
2023-03-16T00:57:09.253Z,-0.42
2023-03-16T00:57:41.917Z,-0.42
2023-03-16T00:58:14.591Z,-0.40
2023-03-16T00:58:47.264Z,-0.42
2023-03-16T00:59:19.933Z,-0.42
2023-03-16T00:59:52.770Z,-0.42
2023-03-16T01:00:25.869Z,-0.43
2023-03-16T01:00:56.565Z,-0.42
2023-03-16T01:01:29.318Z,-0.42
2023-03-16T01:02:02.016Z,-0.46
2023-03-16T01:02:34.837Z,-0.46
2023-03-16T01:03:07.573Z,-0.44
2023-03-16T01:03:40.228Z,-0.44
2023-03-16T01:04:12.904Z,-0.46
2023-03-16T01:04:45.571Z,-0.47
2023-03-16T01:05:18.246Z,-0.46
2023-03-16T01:05:50.906Z,-0.47
2023-03-16T01:06:23.570Z,-0.49
2023-03-16T01:06:56.261Z,-0.51
2023-03-16T01:07:28.935Z,-0.51
2023-03-16T01:08:01.607Z,-0.52
2023-03-16T01:08:34.286Z,-0.51
2023-03-16T01:09:06.963Z,-0.51
2023-03-16T01:09:39.650Z,-0.51
2023-03-16T01:10:12.357Z,-0.52
2023-03-16T01:10:44.990Z,-0.49
2023-03-16T01:11:17.687Z,-0.51
2023-03-16T01:11:50.369Z,-0.52
2023-03-16T01:12:23.040Z,-0.54
2023-03-16T01:12:55.716Z,-0.52
2023-03-16T01:13:28.387Z,-0.52
2023-03-16T01:14:01.052Z,-0.54
2023-03-16T01:14:33.758Z,-0.52
2023-03-16T01:15:06.417Z,-0.52
2023-03-16T01:15:39.085Z,-0.52
2023-03-16T01:16:11.770Z,-0.54
2023-03-16T01:16:44.482Z,-0.54
2023-03-16T01:17:17.210Z,-0.54
2023-03-16T01:17:49.904Z,-0.54
2023-03-16T01:18:22.577Z,-0.54
2023-03-16T01:18:55.250Z,-0.54
2023-03-16T01:19:27.915Z,-0.55
2023-03-16T01:20:00.586Z,-0.54
2023-03-16T01:20:33.272Z,-0.55
2023-03-16T01:21:05.946Z,-0.55
2023-03-16T01:21:38.614Z,-0.55
2023-03-16T01:22:11.292Z,-0.55
2023-03-16T01:22:43.964Z,-0.54
2023-03-16T01:23:16.630Z,-0.55
2023-03-16T01:23:49.301Z,-0.54
2023-03-16T01:24:21.982Z,-0.52
2023-03-16T01:24:54.648Z,-0.54
2023-03-16T01:25:27.348Z,-0.54
2023-03-16T01:26:00.024Z,-0.54
2023-03-16T01:26:32.686Z,-0.52
2023-03-16T01:27:05.386Z,-0.54
2023-03-16T01:27:38.060Z,-0.54
2023-03-16T01:28:10.753Z,-0.52
2023-03-16T01:28:43.416Z,-0.54
2023-03-16T01:29:16.094Z,-0.55
2023-03-16T01:29:48.751Z,-0.55
2023-03-16T01:30:21.438Z,-0.58
2023-03-16T01:30:54.257Z,-0.57
2023-03-16T01:31:26.962Z,-0.57
2023-03-16T01:31:59.648Z,-0.58
2023-03-16T01:32:32.361Z,-0.58
2023-03-16T01:33:05.233Z,-0.58
2023-03-16T01:33:37.934Z,-0.57
2023-03-16T01:34:10.598Z,-0.57
2023-03-16T01:34:43.270Z,-0.57
2023-03-16T01:35:15.953Z,-0.57
2023-03-16T01:35:48.667Z,-0.57
2023-03-16T01:36:21.309Z,-0.60
2023-03-16T01:36:54.020Z,-0.58
2023-03-16T01:37:26.686Z,-0.58
2023-03-16T01:37:59.347Z,-0.58
2023-03-16T01:38:32.040Z,-0.58
2023-03-16T01:39:04.716Z,-0.58
2023-03-16T01:39:37.378Z,-0.62
2023-03-16T01:40:10.047Z,-0.61
2023-03-16T01:40:42.762Z,-0.60
2023-03-16T01:41:15.415Z,-0.61
2023-03-16T01:41:48.104Z,-0.60
2023-03-16T01:42:20.788Z,-0.61
2023-03-16T01:42:53.448Z,-0.60
2023-03-16T01:43:26.136Z,-0.61
2023-03-16T01:43:58.804Z,-0.61
2023-03-16T01:44:31.556Z,-0.62
2023-03-16T01:45:04.200Z,-0.62
2023-03-16T01:45:36.875Z,-0.62
2023-03-16T01:46:09.639Z,-0.64
2023-03-16T01:46:42.336Z,-0.64
2023-03-16T01:47:15.050Z,-0.64
2023-03-16T01:47:47.728Z,-0.67
2023-03-16T01:48:20.400Z,-0.65
2023-03-16T01:48:53.089Z,-0.65
2023-03-16T01:49:25.754Z,-0.65
2023-03-16T01:49:58.435Z,-0.67
2023-03-16T01:50:31.093Z,-0.67
2023-03-16T01:51:06.203Z,-0.67
2023-03-16T01:51:32.400Z,-0.67
2023-03-16T01:52:05.095Z,-0.72
2023-03-16T01:52:37.752Z,-0.70
2023-03-16T01:53:10.425Z,-0.70
2023-03-16T01:53:43.094Z,-0.70
2023-03-16T01:54:15.767Z,-0.69
2023-03-16T01:54:48.454Z,-0.69
2023-03-16T01:55:21.121Z,-0.72
2023-03-16T01:55:53.813Z,-0.72
2023-03-16T01:56:26.448Z,-0.72
2023-03-16T01:56:59.168Z,-0.72
2023-03-16T01:57:31.829Z,-0.72
2023-03-16T01:58:04.529Z,-0.73
2023-03-16T01:58:37.211Z,-0.72
2023-03-16T01:59:09.880Z,-0.73
2023-03-16T01:59:42.565Z,-0.75
2023-03-16T02:00:15.233Z,-0.75
2023-03-16T02:00:47.918Z,-0.75
2023-03-16T02:01:20.641Z,-0.76
2023-03-16T02:01:53.385Z,-0.76
2023-03-16T02:02:26.055Z,-0.78
2023-03-16T02:02:58.716Z,-0.76
2023-03-16T02:03:31.385Z,-0.78
2023-03-16T02:04:04.076Z,-0.79
2023-03-16T02:04:36.871Z,-0.80
2023-03-16T02:05:09.697Z,-0.80
2023-03-16T02:05:42.427Z,-0.82
2023-03-16T02:06:15.101Z,-0.83
2023-03-16T02:06:47.789Z,-0.83
2023-03-16T02:07:20.471Z,-0.85
2023-03-16T02:07:53.132Z,-0.86
2023-03-16T02:08:25.795Z,-0.85
2023-03-16T02:08:58.458Z,-0.91
2023-03-16T02:09:31.180Z,-0.95
2023-03-16T02:10:03.854Z,-0.97
2023-03-16T02:10:36.513Z,-0.97
2023-03-16T02:11:09.210Z,-0.95
2023-03-16T02:11:41.877Z,-0.95
2023-03-16T02:12:14.553Z,-0.97
2023-03-16T02:12:47.220Z,-0.98
2023-03-16T02:13:19.893Z,-0.95
2023-03-16T02:13:52.574Z,-0.98
2023-03-16T02:14:25.222Z,-0.99
2023-03-16T02:14:57.894Z,-1.01
2023-03-16T02:15:30.566Z,-0.99
2023-03-16T02:16:03.326Z,-1.01
2023-03-16T02:16:36.000Z,-1.02
2023-03-16T02:17:08.744Z,-1.02
2023-03-16T02:17:41.405Z,-1.02
2023-03-16T02:18:14.075Z,-1.05
2023-03-16T02:18:46.740Z,-1.05
2023-03-16T02:19:19.417Z,-1.07
2023-03-16T02:19:52.091Z,-1.07
2023-03-16T02:20:24.777Z,-1.10
2023-03-16T02:20:57.491Z,-1.09
2023-03-16T02:21:30.142Z,-1.07
2023-03-16T02:22:02.847Z,-1.05
2023-03-16T02:22:36.177Z,-1.05
2023-03-16T02:23:02.304Z,-1.05
2023-03-16T02:23:34.976Z,-1.05
2023-03-16T02:24:07.641Z,-1.05
2023-03-16T02:24:40.328Z,-1.04
2023-03-16T02:25:13.008Z,-1.04
2023-03-16T02:25:45.683Z,-1.04
2023-03-16T02:26:18.375Z,-1.02
2023-03-16T02:26:51.029Z,-1.02
2023-03-16T02:27:23.733Z,-1.04
2023-03-16T02:27:56.400Z,-1.05
2023-03-16T02:28:29.076Z,-1.04
2023-03-16T02:29:01.734Z,-1.05
2023-03-16T02:29:34.401Z,-1.04
2023-03-16T02:30:07.084Z,-1.02
2023-03-16T02:30:38.171Z,-1.02
2023-03-16T02:31:10.845Z,-1.01
2023-03-16T02:31:43.537Z,-1.02
2023-03-16T02:32:16.193Z,-1.01
2023-03-16T02:32:49.034Z,-0.99
2023-03-16T02:33:21.691Z,-1.02
2023-03-16T02:33:54.361Z,-0.99
2023-03-16T02:34:27.033Z,-0.99
2023-03-16T02:34:59.728Z,-0.99
2023-03-16T02:35:32.455Z,-0.99
2023-03-16T02:36:05.225Z,-1.01
2023-03-16T02:36:37.912Z,-0.99
2023-03-16T02:37:10.571Z,-0.99
2023-03-16T02:37:43.236Z,-0.98
2023-03-16T02:38:15.927Z,-0.98
2023-03-16T02:38:48.586Z,-0.98
2023-03-16T02:39:21.238Z,-0.99
2023-03-16T02:39:53.918Z,-0.98
2023-03-16T02:40:26.924Z,-0.98
2023-03-16T02:40:53.260Z,-0.98
2023-03-16T02:41:25.950Z,-0.99
2023-03-16T02:41:58.639Z,-0.98
2023-03-16T02:42:31.296Z,-0.98
2023-03-16T02:43:03.975Z,-0.97
2023-03-16T02:43:36.651Z,-0.98
2023-03-16T02:44:09.319Z,-0.98
2023-03-16T02:44:41.991Z,-0.98
2023-03-16T02:45:14.659Z,-0.98
2023-03-16T02:45:47.332Z,-0.99
2023-03-16T02:46:20.069Z,-0.99
2023-03-16T02:46:52.837Z,-0.99
2023-03-16T02:47:25.509Z,-0.99
2023-03-16T02:47:58.177Z,-1.01
2023-03-16T02:48:30.855Z,-1.01
2023-03-16T02:49:03.512Z,-1.01
2023-03-16T02:49:36.186Z,-1.01
2023-03-16T02:50:08.853Z,-1.01
2023-03-16T02:50:41.539Z,-0.99
2023-03-16T02:51:14.218Z,-1.01
2023-03-16T02:51:46.921Z,-1.01
2023-03-16T02:52:19.587Z,-1.02
2023-03-16T02:52:52.266Z,-0.99
2023-03-16T02:53:24.943Z,-0.99
2023-03-16T02:53:57.632Z,-0.99
2023-03-16T02:54:30.294Z,-1.01
2023-03-16T02:55:02.957Z,-1.02
2023-03-16T02:55:35.635Z,-1.04
2023-03-16T02:56:08.327Z,-1.02
2023-03-16T02:56:41.011Z,-1.04
2023-03-16T02:57:13.656Z,-1.04
2023-03-16T02:57:46.342Z,-1.02
2023-03-16T02:58:19.047Z,-1.04
2023-03-16T02:58:51.714Z,-1.05
2023-03-16T02:59:24.405Z,-1.05
2023-03-16T02:59:57.081Z,-1.07
2023-03-16T03:00:30.095Z,-1.05
2023-03-16T03:00:56.398Z,-1.09
2023-03-16T03:01:29.086Z,-1.12
2023-03-16T03:02:01.847Z,-1.13
2023-03-16T03:02:34.530Z,-1.15
2023-03-16T03:03:07.261Z,-1.13
2023-03-16T03:03:39.925Z,-1.15
2023-03-16T03:04:12.582Z,-1.16
2023-03-16T03:04:45.262Z,-1.17
2023-03-16T03:05:17.923Z,-1.16
2023-03-16T03:05:50.589Z,-1.17
2023-03-16T03:06:23.260Z,-1.17
2023-03-16T03:06:55.965Z,-1.17
2023-03-16T03:07:28.624Z,-1.20
2023-03-16T03:08:01.324Z,-1.20
2023-03-16T03:08:33.966Z,-1.20
2023-03-16T03:09:06.679Z,-1.22
2023-03-16T03:09:39.354Z,-1.25
2023-03-16T03:10:12.028Z,-1.23
2023-03-16T03:10:44.695Z,-1.23
2023-03-16T03:11:17.389Z,-1.25
2023-03-16T03:11:50.081Z,-1.23
2023-03-16T03:12:22.737Z,-1.27
2023-03-16T03:12:55.401Z,-1.25
2023-03-16T03:13:28.091Z,-1.27
2023-03-16T03:14:00.771Z,-1.25
2023-03-16T03:14:33.431Z,-1.25
2023-03-16T03:15:06.099Z,-1.25
2023-03-16T03:15:38.781Z,-1.28
2023-03-16T03:16:11.487Z,-1.27
2023-03-16T03:16:44.233Z,-1.28
2023-03-16T03:17:16.915Z,-1.25
2023-03-16T03:17:49.574Z,-1.23
2023-03-16T03:18:22.255Z,-1.27
2023-03-16T03:18:54.926Z,-1.27
2023-03-16T03:19:27.601Z,-1.27
2023-03-16T03:20:00.274Z,-1.25
2023-03-16T03:20:32.939Z,-1.25
2023-03-16T03:21:05.654Z,-1.25
2023-03-16T03:21:38.308Z,-1.25
2023-03-16T03:22:10.961Z,-1.27
2023-03-16T03:22:43.635Z,-1.23
2023-03-16T03:23:16.308Z,-1.25
2023-03-16T03:23:48.988Z,-1.27
2023-03-16T03:24:21.653Z,-1.27
2023-03-16T03:24:54.354Z,-1.27
2023-03-16T03:25:26.990Z,-1.27
2023-03-16T03:25:59.673Z,-1.27
2023-03-16T03:26:32.339Z,-1.28
2023-03-16T03:27:05.083Z,-1.28
2023-03-16T03:27:37.765Z,-1.30
2023-03-16T03:28:10.447Z,-1.28
2023-03-16T03:28:43.090Z,-1.28
2023-03-16T03:29:15.867Z,-1.30
2023-03-16T03:29:46.956Z,-1.31
2023-03-16T03:30:19.618Z,-1.33
2023-03-16T03:30:52.276Z,-1.35
2023-03-16T03:31:25.024Z,-1.33
2023-03-16T03:31:57.730Z,-1.33
2023-03-16T03:32:30.436Z,-1.34
2023-03-16T03:33:03.144Z,-1.35
2023-03-16T03:33:35.813Z,-1.37
2023-03-16T03:34:08.472Z,-1.37
2023-03-16T03:34:41.159Z,-1.37
2023-03-16T03:35:13.811Z,-1.35
2023-03-16T03:35:46.548Z,-1.41
2023-03-16T03:36:19.180Z,-1.38
2023-03-16T03:36:51.875Z,-1.40
2023-03-16T03:37:24.549Z,-1.43
2023-03-16T03:37:57.237Z,-1.40
2023-03-16T03:38:29.915Z,-1.45
2023-03-16T03:39:02.586Z,-1.43
2023-03-16T03:39:35.309Z,-1.43
2023-03-16T03:40:07.939Z,-1.43
2023-03-16T03:40:40.637Z,-1.43
2023-03-16T03:41:13.313Z,-1.46
2023-03-16T03:41:46.022Z,-1.45
2023-03-16T03:42:18.705Z,-1.45
2023-03-16T03:42:51.359Z,-1.43
2023-03-16T03:43:24.020Z,-1.48
2023-03-16T03:43:56.681Z,-1.48
2023-03-16T03:44:29.342Z,-1.49
2023-03-16T03:45:02.042Z,-1.51
2023-03-16T03:45:34.763Z,-1.52
2023-03-16T03:46:07.661Z,-1.54
2023-03-16T03:46:40.544Z,-1.52
2023-03-16T03:47:13.356Z,-1.55
2023-03-16T03:47:46.039Z,-1.55
2023-03-16T03:48:18.722Z,-1.54
2023-03-16T03:48:51.384Z,-1.56
2023-03-16T03:49:24.044Z,-1.56
2023-03-16T03:49:56.716Z,-1.56
2023-03-16T03:50:29.713Z,-1.55
2023-03-16T03:50:56.081Z,-1.55
2023-03-16T03:51:28.775Z,-1.58
2023-03-16T03:52:01.449Z,-1.58
2023-03-16T03:52:34.112Z,-1.58
2023-03-16T03:53:06.797Z,-1.59
2023-03-16T03:53:39.466Z,-1.58
2023-03-16T03:54:12.183Z,-1.61
2023-03-16T03:54:44.840Z,-1.59
2023-03-16T03:55:17.511Z,-1.61
2023-03-16T03:55:50.204Z,-1.62
2023-03-16T03:56:22.868Z,-1.61
2023-03-16T03:56:55.580Z,-1.62
2023-03-16T03:57:28.259Z,-1.64
2023-03-16T03:58:00.938Z,-1.64
2023-03-16T03:58:33.608Z,-1.66
2023-03-16T03:59:04.683Z,-1.67
2023-03-16T03:59:37.353Z,-1.69
2023-03-16T04:00:10.027Z,-1.69
2023-03-16T04:00:41.126Z,-1.69
2023-03-16T04:01:13.794Z,-1.70
2023-03-16T04:01:46.498Z,-1.72
2023-03-16T04:02:19.263Z,-1.73
2023-03-16T04:02:52.222Z,-1.74
2023-03-16T04:03:25.071Z,-1.73
2023-03-16T04:03:57.734Z,-1.74
2023-03-16T04:04:30.419Z,-1.77
2023-03-16T04:05:03.076Z,-1.77
2023-03-16T04:05:35.750Z,-1.76
2023-03-16T04:06:08.437Z,-1.76
2023-03-16T04:06:41.114Z,-1.79
2023-03-16T04:07:13.779Z,-1.76
2023-03-16T04:07:46.496Z,-1.76
2023-03-16T04:08:19.160Z,-1.79
2023-03-16T04:08:51.833Z,-1.79
2023-03-16T04:09:24.510Z,-1.80
2023-03-16T04:09:57.186Z,-1.80
2023-03-16T04:10:30.271Z,-1.82
2023-03-16T04:10:56.580Z,-1.80
2023-03-16T04:11:29.253Z,-1.84
2023-03-16T04:12:01.937Z,-1.85
2023-03-16T04:12:34.658Z,-1.87
2023-03-16T04:13:07.313Z,-1.88
2023-03-16T04:13:39.969Z,-1.90
2023-03-16T04:14:12.644Z,-1.91
2023-03-16T04:14:45.320Z,-1.91
2023-03-16T04:15:17.995Z,-1.90
2023-03-16T04:15:50.656Z,-1.92
2023-03-16T04:16:23.329Z,-1.91
2023-03-16T04:16:56.058Z,-1.90
2023-03-16T04:17:28.740Z,-1.90
2023-03-16T04:18:01.418Z,-1.91
2023-03-16T04:18:34.087Z,-1.90
2023-03-16T04:19:06.759Z,-1.90
2023-03-16T04:19:39.429Z,-1.88
2023-03-16T04:20:12.097Z,-1.91
2023-03-16T04:20:44.762Z,-1.91
2023-03-16T04:21:17.437Z,-1.91
2023-03-16T04:21:50.128Z,-1.88
2023-03-16T04:22:22.796Z,-1.91
2023-03-16T04:22:55.462Z,-1.90
2023-03-16T04:23:28.133Z,-1.90
2023-03-16T04:24:00.794Z,-1.90
2023-03-16T04:24:33.460Z,-1.90
2023-03-16T04:25:06.137Z,-1.91
2023-03-16T04:25:37.216Z,-1.91
2023-03-16T04:26:09.886Z,-1.90
2023-03-16T04:26:42.556Z,-1.90
2023-03-16T04:27:15.262Z,-1.91
2023-03-16T04:27:47.961Z,-1.88
2023-03-16T04:28:20.596Z,-1.88
2023-03-16T04:28:53.280Z,-1.87
2023-03-16T04:29:25.969Z,-1.88
2023-03-16T04:29:58.628Z,-1.88
2023-03-16T04:30:31.295Z,-1.88
2023-03-16T04:31:04.076Z,-1.87
2023-03-16T04:31:36.783Z,-1.87
2023-03-16T04:32:09.469Z,-1.87
2023-03-16T04:32:42.200Z,-1.87
2023-03-16T04:33:14.834Z,-1.87
2023-03-16T04:33:47.510Z,-1.88
2023-03-16T04:34:20.177Z,-1.88
2023-03-16T04:34:52.842Z,-1.87
2023-03-16T04:35:25.516Z,-1.88
2023-03-16T04:35:58.270Z,-1.88
2023-03-16T04:36:30.925Z,-1.91
2023-03-16T04:37:03.646Z,-1.90
2023-03-16T04:37:36.305Z,-1.92
2023-03-16T04:38:08.994Z,-1.91
2023-03-16T04:38:41.676Z,-1.92
2023-03-16T04:39:14.339Z,-1.91
2023-03-16T04:39:47.003Z,-1.91
2023-03-16T04:40:19.680Z,-1.92
2023-03-16T04:40:52.349Z,-1.92
2023-03-16T04:41:25.006Z,-1.91
2023-03-16T04:41:57.677Z,-1.92
2023-03-16T04:42:30.372Z,-1.92
2023-03-16T04:43:03.060Z,-1.92
2023-03-16T04:43:35.720Z,-1.94
2023-03-16T04:44:08.389Z,-1.94
2023-03-16T04:44:41.051Z,-1.95
2023-03-16T04:45:13.724Z,-1.94
2023-03-16T04:45:46.402Z,-1.94
2023-03-16T04:46:19.065Z,-1.94
2023-03-16T04:46:51.728Z,-1.92
2023-03-16T04:47:24.408Z,-1.94
2023-03-16T04:47:57.066Z,-1.94
2023-03-16T04:48:29.753Z,-1.94
2023-03-16T04:49:02.430Z,-1.92
2023-03-16T04:49:35.098Z,-1.95
2023-03-16T04:50:07.772Z,-1.95
2023-03-16T04:50:40.449Z,-1.95
2023-03-16T04:51:13.134Z,-1.95
2023-03-16T04:51:45.803Z,-1.98
2023-03-16T04:52:18.496Z,-2.00
2023-03-16T04:52:51.168Z,-2.00
2023-03-16T04:53:23.830Z,-1.98
2023-03-16T04:53:56.506Z,-2.00
2023-03-16T04:54:29.193Z,-2.00
2023-03-16T04:55:01.852Z,-2.00
2023-03-16T04:55:34.510Z,-2.02
2023-03-16T04:56:07.204Z,-2.02
2023-03-16T04:56:39.862Z,-2.02
2023-03-16T04:57:12.542Z,-2.00
2023-03-16T04:57:45.227Z,-2.03
2023-03-16T04:58:17.929Z,-2.02
2023-03-16T04:58:50.564Z,-2.03
2023-03-16T04:59:23.233Z,-2.03
2023-03-16T04:59:55.909Z,-2.05
2023-03-16T05:00:28.878Z,-2.06
2023-03-16T05:00:55.177Z,-2.05
2023-03-16T05:01:27.874Z,-2.08
2023-03-16T05:02:00.531Z,-2.08
2023-03-16T05:02:33.201Z,-2.09
2023-03-16T05:03:05.871Z,-2.10
2023-03-16T05:03:38.539Z,-2.08
2023-03-16T05:04:15.018Z,-2.09
2023-03-16T05:04:43.303Z,-2.09
2023-03-16T05:05:09.560Z,-2.09
2023-03-16T05:05:42.276Z,-2.09
2023-03-16T05:06:14.977Z,-2.09
2023-03-16T05:06:47.641Z,-2.09
2023-03-16T05:07:20.339Z,-2.12
2023-03-16T05:07:53.021Z,-2.12
2023-03-16T05:08:25.694Z,-2.13
2023-03-16T05:08:58.393Z,-2.16
2023-03-16T05:09:31.057Z,-2.16
2023-03-16T05:10:03.731Z,-2.18
2023-03-16T05:10:36.409Z,-2.20
2023-03-16T05:11:09.079Z,-2.20
2023-03-16T05:11:41.754Z,-2.20
2023-03-16T05:12:14.433Z,-2.20
2023-03-16T05:12:47.116Z,-2.21
2023-03-16T05:13:19.791Z,-2.21
2023-03-16T05:13:52.474Z,-2.21
2023-03-16T05:14:25.141Z,-2.23
2023-03-16T05:14:57.793Z,-2.21
2023-03-16T05:15:30.472Z,-2.20
2023-03-16T05:16:03.187Z,-2.20
2023-03-16T05:16:35.838Z,-2.18
2023-03-16T05:17:08.520Z,-2.18
2023-03-16T05:17:41.189Z,-2.18
2023-03-16T05:18:13.856Z,-2.16
2023-03-16T05:18:46.522Z,-2.16
2023-03-16T05:19:19.218Z,-2.16
2023-03-16T05:19:51.882Z,-2.18
2023-03-16T05:20:24.555Z,-2.18
2023-03-16T05:20:57.233Z,-2.18
2023-03-16T05:21:29.906Z,-2.18
2023-03-16T05:22:02.581Z,-2.18
2023-03-16T05:22:35.264Z,-2.16
2023-03-16T05:23:07.908Z,-2.16
2023-03-16T05:23:40.576Z,-2.18
2023-03-16T05:24:13.249Z,-2.18
2023-03-16T05:24:45.924Z,-2.18
2023-03-16T05:25:18.590Z,-2.20
2023-03-16T05:25:51.265Z,-2.18
2023-03-16T05:26:23.960Z,-2.20
2023-03-16T05:26:56.627Z,-2.20
2023-03-16T05:27:29.330Z,-2.16
2023-03-16T05:28:02.067Z,-2.16
2023-03-16T05:28:34.704Z,-2.18
2023-03-16T05:29:07.398Z,-2.16
2023-03-16T05:29:40.054Z,-2.18
2023-03-16T05:30:12.706Z,-2.13
2023-03-16T05:30:45.493Z,-2.16
2023-03-16T05:31:18.240Z,-2.15
2023-03-16T05:31:50.924Z,-2.13
2023-03-16T05:32:23.612Z,-2.13
2023-03-16T05:32:56.342Z,-2.15
2023-03-16T05:33:29.050Z,-2.16
2023-03-16T05:34:01.694Z,-2.15
2023-03-16T05:34:34.373Z,-2.15
2023-03-16T05:35:07.055Z,-2.15
2023-03-16T05:35:39.787Z,-2.15
2023-03-16T05:36:12.537Z,-2.18
2023-03-16T05:36:45.226Z,-2.16
2023-03-16T05:37:17.916Z,-2.16
2023-03-16T05:37:50.618Z,-2.20
2023-03-16T05:38:23.274Z,-2.18
2023-03-16T05:38:55.939Z,-2.16
2023-03-16T05:39:28.614Z,-2.18
2023-03-16T05:40:01.300Z,-2.20
2023-03-16T05:40:33.970Z,-2.16
2023-03-16T05:41:09.851Z,-2.18
2023-03-16T05:41:36.039Z,-2.20
2023-03-16T05:42:08.701Z,-2.20
2023-03-16T05:42:41.507Z,-2.20
2023-03-16T05:43:14.236Z,-2.20
2023-03-16T05:43:46.903Z,-2.18
2023-03-16T05:44:19.604Z,-2.15
2023-03-16T05:44:52.272Z,-2.16
2023-03-16T05:45:24.971Z,-2.15
2023-03-16T05:45:57.651Z,-2.13
2023-03-16T05:46:30.425Z,-2.15
2023-03-16T05:47:03.244Z,-2.10
2023-03-16T05:47:35.938Z,-2.09
2023-03-16T05:48:08.614Z,-2.08
2023-03-16T05:48:41.304Z,-2.08
2023-03-16T05:49:13.965Z,-2.08
2023-03-16T05:49:46.624Z,-2.08
2023-03-16T05:50:19.298Z,-2.05
2023-03-16T05:50:51.968Z,-2.03
2023-03-16T05:51:24.640Z,-2.02
2023-03-16T05:51:57.309Z,-2.03
2023-03-16T05:52:29.993Z,-2.02
2023-03-16T05:53:02.660Z,-2.02
2023-03-16T05:53:35.319Z,-2.02
2023-03-16T05:54:07.986Z,-1.98
2023-03-16T05:54:40.655Z,-2.00
2023-03-16T05:55:13.315Z,-2.00
2023-03-16T05:55:45.992Z,-2.00
2023-03-16T05:56:18.658Z,-1.98
2023-03-16T05:56:51.330Z,-1.98
2023-03-16T05:57:24.027Z,-1.95
2023-03-16T05:57:56.704Z,-1.94
2023-03-16T05:58:29.384Z,-1.94
2023-03-16T05:59:02.057Z,-1.92
2023-03-16T05:59:34.796Z,-1.91
2023-03-16T06:00:07.433Z,-1.91
2023-03-16T06:00:40.095Z,-1.90
2023-03-16T06:01:12.786Z,-1.88
2023-03-16T06:01:45.437Z,-1.85
2023-03-16T06:02:18.124Z,-1.84
2023-03-16T06:02:50.815Z,-1.82
2023-03-16T06:03:23.485Z,-1.80
2023-03-16T06:03:56.219Z,-1.80
2023-03-16T06:04:28.986Z,-1.79
2023-03-16T06:05:01.635Z,-1.79
2023-03-16T06:05:34.301Z,-1.76
2023-03-16T06:06:06.968Z,-1.76
2023-03-16T06:06:39.635Z,-1.74
2023-03-16T06:07:12.345Z,-1.74
2023-03-16T06:07:44.998Z,-1.73
2023-03-16T06:08:17.697Z,-1.70
2023-03-16T06:08:50.348Z,-1.70
2023-03-16T06:09:23.010Z,-1.70
2023-03-16T06:09:55.685Z,-1.66
2023-03-16T06:10:28.526Z,-1.66
2023-03-16T06:11:01.282Z,-1.64
2023-03-16T06:11:33.943Z,-1.59
2023-03-16T06:12:06.638Z,-1.58
2023-03-16T06:12:39.313Z,-1.56
2023-03-16T06:13:11.979Z,-1.56
2023-03-16T06:13:44.644Z,-1.51
2023-03-16T06:14:17.325Z,-1.51
2023-03-16T06:14:50.012Z,-1.49
2023-03-16T06:15:22.660Z,-1.46
2023-03-16T06:15:55.338Z,-1.43
2023-03-16T06:16:28.122Z,-1.45
2023-03-16T06:17:00.773Z,-1.41
2023-03-16T06:17:33.446Z,-1.43
2023-03-16T06:18:06.128Z,-1.40
2023-03-16T06:18:38.779Z,-1.37
2023-03-16T06:19:11.451Z,-1.35
2023-03-16T06:19:44.121Z,-1.33
2023-03-16T06:20:16.812Z,-1.33
2023-03-16T06:20:49.486Z,-1.31
2023-03-16T06:21:22.175Z,-1.30
2023-03-16T06:21:54.938Z,-1.28
2023-03-16T06:22:27.589Z,-1.25
2023-03-16T06:23:00.260Z,-1.27
2023-03-16T06:23:32.947Z,-1.23
2023-03-16T06:24:05.624Z,-1.23
2023-03-16T06:24:38.290Z,-1.20
2023-03-16T06:25:10.978Z,-1.19
2023-03-16T06:25:43.639Z,-1.17
2023-03-16T06:26:16.339Z,-1.12
2023-03-16T06:26:48.993Z,-1.12
2023-03-16T06:27:21.688Z,-1.09
2023-03-16T06:27:54.351Z,-1.04
2023-03-16T06:28:27.021Z,-1.04
2023-03-16T06:28:59.699Z,-0.98
2023-03-16T06:29:32.377Z,-0.98
2023-03-16T06:30:05.072Z,-0.95
2023-03-16T06:30:37.720Z,-0.94
2023-03-16T06:31:10.428Z,-0.91
2023-03-16T06:31:43.182Z,-0.85
2023-03-16T06:32:15.855Z,-0.83
2023-03-16T06:32:48.623Z,-0.83
2023-03-16T06:33:21.314Z,-0.82
2023-03-16T06:33:53.985Z,-0.80
2023-03-16T06:34:26.653Z,-0.78
2023-03-16T06:34:59.335Z,-0.75
2023-03-16T06:35:32.017Z,-0.70
2023-03-16T06:36:04.784Z,-0.70
2023-03-16T06:36:37.440Z,-0.67
2023-03-16T06:37:10.129Z,-0.64
2023-03-16T06:37:42.788Z,-0.64
2023-03-16T06:38:15.458Z,-0.60
2023-03-16T06:38:48.117Z,-0.58
2023-03-16T06:39:20.779Z,-0.55
2023-03-16T06:39:53.453Z,-0.52
2023-03-16T06:40:26.647Z,-0.49
2023-03-16T06:40:52.963Z,-0.46
2023-03-16T06:41:25.648Z,-0.43
2023-03-16T06:41:58.325Z,-0.39
2023-03-16T06:42:31.005Z,-0.37
2023-03-16T06:43:03.677Z,-0.36
2023-03-16T06:43:36.350Z,-0.31
2023-03-16T06:44:09.029Z,-0.28
2023-03-16T06:44:41.686Z,-0.23
2023-03-16T06:45:14.398Z,-0.21
2023-03-16T06:45:47.066Z,-0.18
2023-03-16T06:46:19.823Z,-0.15
2023-03-16T06:46:52.493Z,-0.10
2023-03-16T06:47:25.187Z,-0.04
2023-03-16T06:47:57.860Z,-0.03
2023-03-16T06:48:30.553Z,0.04
2023-03-16T06:49:03.227Z,0.07
2023-03-16T06:49:35.883Z,0.11
2023-03-16T06:50:08.554Z,0.15
2023-03-16T06:50:41.237Z,0.18
2023-03-16T06:51:15.698Z,0.21
2023-03-16T06:51:42.861Z,0.26
2023-03-16T06:52:15.549Z,0.29
2023-03-16T06:52:48.218Z,0.32
2023-03-16T06:53:20.878Z,0.39
2023-03-16T06:53:53.548Z,0.42
2023-03-16T06:54:26.221Z,0.47
2023-03-16T06:54:58.910Z,0.50
2023-03-16T06:55:31.563Z,0.53
2023-03-16T06:56:04.232Z,0.55
2023-03-16T06:56:36.904Z,0.58
2023-03-16T06:57:09.590Z,0.62
2023-03-16T06:57:42.335Z,0.68
2023-03-16T06:58:15.012Z,0.70
2023-03-16T06:58:47.723Z,0.76
2023-03-16T06:59:20.379Z,0.79
2023-03-16T06:59:53.052Z,0.84